sensor_id;sensor_type;location;lat;lon;timestamp;temperature;humidity
65058;HTU21D;51644;51.068;5.860;2024-02-21T00:00:55;10.62;84.38
65058;HTU21D;51644;51.068;5.860;2024-02-21T00:01:57;10.55;84.72
65058;HTU21D;51644;51.068;5.860;2024-02-21T00:02:58;10.62;84.39
65058;HTU21D;51644;51.068;5.860;2024-02-21T00:03:58;10.59;84.50
65058;HTU21D;51644;51.068;5.860;2024-02-21T00:04:59;10.58;84.64
65058;HTU21D;51644;51.068;5.860;2024-02-21T00:05:57;10.62;84.45
65058;HTU21D;51644;51.068;5.860;2024-02-21T00:06:56;10.57;84.90
65058;HTU21D;51644;51.068;5.860;2024-02-21T00:07:55;10.54;84.86
65058;HTU21D;51644;51.068;5.860;2024-02-21T00:08:54;10.56;84.80
65058;HTU21D;51644;51.068;5.860;2024-02-21T00:09:53;10.53;85.00
65058;HTU21D;51644;51.068;5.860;2024-02-21T00:10:52;10.55;85.11
65058;HTU21D;51644;51.068;5.860;2024-02-21T00:11:50;10.57;84.82
65058;HTU21D;51644;51.068;5.860;2024-02-21T00:12:49;10.57;84.81
65058;HTU21D;51644;51.068;5.860;2024-02-21T00:13:48;10.62;84.64
65058;HTU21D;51644;51.068;5.860;2024-02-21T00:14:47;10.54;85.08
65058;HTU21D;51644;51.068;5.860;2024-02-21T00:15:46;10.58;84.92
65058;HTU21D;51644;51.068;5.860;2024-02-21T00:16:44;10.53;85.17
65058;HTU21D;51644;51.068;5.860;2024-02-21T00:17:49;10.59;84.95
65058;HTU21D;51644;51.068;5.860;2024-02-21T00:18:51;10.63;84.76
65058;HTU21D;51644;51.068;5.860;2024-02-21T00:19:49;10.58;85.09
65058;HTU21D;51644;51.068;5.860;2024-02-21T00:20:48;10.56;85.16
65058;HTU21D;51644;51.068;5.860;2024-02-21T00:21:47;10.58;85.09
65058;HTU21D;51644;51.068;5.860;2024-02-21T00:22:46;10.59;85.03
65058;HTU21D;51644;51.068;5.860;2024-02-21T00:23:45;10.66;84.71
65058;HTU21D;51644;51.068;5.860;2024-02-21T00:24:44;10.68;84.62
65058;HTU21D;51644;51.068;5.860;2024-02-21T00:25:43;10.65;84.87
65058;HTU21D;51644;51.068;5.860;2024-02-21T00:26:42;10.64;84.80
65058;HTU21D;51644;51.068;5.860;2024-02-21T00:27:41;10.59;85.03
65058;HTU21D;51644;51.068;5.860;2024-02-21T00:28:43;10.66;84.74
65058;HTU21D;51644;51.068;5.860;2024-02-21T00:29:44;10.59;85.41
65058;HTU21D;51644;51.068;5.860;2024-02-21T00:30:43;10.58;85.20
65058;HTU21D;51644;51.068;5.860;2024-02-21T00:31:42;10.54;85.50
65058;HTU21D;51644;51.068;5.860;2024-02-21T00:32:43;10.59;85.29
65058;HTU21D;51644;51.068;5.860;2024-02-21T00:33:42;10.58;85.28
65058;HTU21D;51644;51.068;5.860;2024-02-21T00:34:41;10.56;85.38
65058;HTU21D;51644;51.068;5.860;2024-02-21T00:35:39;10.59;85.18
65058;HTU21D;51644;51.068;5.860;2024-02-21T00:36:38;10.62;85.13
65058;HTU21D;51644;51.068;5.860;2024-02-21T00:37:37;10.57;85.59
65058;HTU21D;51644;51.068;5.860;2024-02-21T00:38:36;10.59;85.22
65058;HTU21D;51644;51.068;5.860;2024-02-21T00:39:35;10.64;85.04
65058;HTU21D;51644;51.068;5.860;2024-02-21T00:40:36;10.64;85.10
65058;HTU21D;51644;51.068;5.860;2024-02-21T00:41:35;10.63;85.24
65058;HTU21D;51644;51.068;5.860;2024-02-21T00:42:36;10.65;85.06
65058;HTU21D;51644;51.068;5.860;2024-02-21T00:43:38;10.67;84.97
65058;HTU21D;51644;51.068;5.860;2024-02-21T00:44:37;10.68;84.96
65058;HTU21D;51644;51.068;5.860;2024-02-21T00:45:35;10.70;84.86
65058;HTU21D;51644;51.068;5.860;2024-02-21T00:46:34;10.69;84.87
65058;HTU21D;51644;51.068;5.860;2024-02-21T00:47:33;10.72;84.77
65058;HTU21D;51644;51.068;5.860;2024-02-21T00:48:32;10.71;84.94
65058;HTU21D;51644;51.068;5.860;2024-02-21T00:49:40;10.71;84.88
65058;HTU21D;51644;51.068;5.860;2024-02-21T00:50:39;10.77;84.77
65058;HTU21D;51644;51.068;5.860;2024-02-21T00:51:38;10.73;84.85
65058;HTU21D;51644;51.068;5.860;2024-02-21T00:52:36;10.74;84.77
65058;HTU21D;51644;51.068;5.860;2024-02-21T00:53:35;10.78;84.68
65058;HTU21D;51644;51.068;5.860;2024-02-21T00:54:42;10.82;84.58
65058;HTU21D;51644;51.068;5.860;2024-02-21T00:55:41;10.79;84.55
65058;HTU21D;51644;51.068;5.860;2024-02-21T00:56:42;10.82;84.58
65058;HTU21D;51644;51.068;5.860;2024-02-21T00:57:43;10.83;84.49
65058;HTU21D;51644;51.068;5.860;2024-02-21T00:58:45;10.80;84.65
65058;HTU21D;51644;51.068;5.860;2024-02-21T00:59:43;10.80;84.65
65058;HTU21D;51644;51.068;5.860;2024-02-21T01:00:42;10.79;84.64
65058;HTU21D;51644;51.068;5.860;2024-02-21T01:01:41;10.84;84.56
65058;HTU21D;51644;51.068;5.860;2024-02-21T01:02:44;10.81;84.63
65058;HTU21D;51644;51.068;5.860;2024-02-21T01:03:43;10.78;84.64
65058;HTU21D;51644;51.068;5.860;2024-02-21T01:04:42;10.75;84.74
65058;HTU21D;51644;51.068;5.860;2024-02-21T01:05:40;10.81;84.66
65058;HTU21D;51644;51.068;5.860;2024-02-21T01:06:41;10.79;84.77
65058;HTU21D;51644;51.068;5.860;2024-02-21T01:07:45;10.78;84.71
65058;HTU21D;51644;51.068;5.860;2024-02-21T01:08:44;10.79;84.77
65058;HTU21D;51644;51.068;5.860;2024-02-21T01:09:43;10.73;84.94
65058;HTU21D;51644;51.068;5.860;2024-02-21T01:10:50;10.74;84.85
65058;HTU21D;51644;51.068;5.860;2024-02-21T01:11:49;10.73;84.97
65058;HTU21D;51644;51.068;5.860;2024-02-21T01:12:48;10.70;84.97
65058;HTU21D;51644;51.068;5.860;2024-02-21T01:13:47;10.72;85.00
65058;HTU21D;51644;51.068;5.860;2024-02-21T01:14:46;10.71;85.00
65058;HTU21D;51644;51.068;5.860;2024-02-21T01:15:45;10.74;84.90
65058;HTU21D;51644;51.068;5.860;2024-02-21T01:16:52;10.74;84.87
65058;HTU21D;51644;51.068;5.860;2024-02-21T01:17:51;10.75;84.79
65058;HTU21D;51644;51.068;5.860;2024-02-21T01:18:55;10.74;85.00
65058;HTU21D;51644;51.068;5.860;2024-02-21T01:19:54;10.70;85.09
65058;HTU21D;51644;51.068;5.860;2024-02-21T01:20:53;10.72;85.12
65058;HTU21D;51644;51.068;5.860;2024-02-21T01:21:52;10.71;85.05
65058;HTU21D;51644;51.068;5.860;2024-02-21T01:22:51;10.70;85.00
65058;HTU21D;51644;51.068;5.860;2024-02-21T01:23:50;10.71;85.05
65058;HTU21D;51644;51.068;5.860;2024-02-21T01:24:49;10.72;85.00
65058;HTU21D;51644;51.068;5.860;2024-02-21T01:25:47;10.67;85.12
65058;HTU21D;51644;51.068;5.860;2024-02-21T01:26:46;10.62;85.13
65058;HTU21D;51644;51.068;5.860;2024-02-21T01:27:48;10.60;85.37
65058;HTU21D;51644;51.068;5.860;2024-02-21T01:28:50;10.67;85.21
65058;HTU21D;51644;51.068;5.860;2024-02-21T01:29:49;10.68;85.01
65058;HTU21D;51644;51.068;5.860;2024-02-21T01:30:48;10.71;84.94
65058;HTU21D;51644;51.068;5.860;2024-02-21T01:31:47;10.69;85.08
65058;HTU21D;51644;51.068;5.860;2024-02-21T01:32:46;10.70;85.00
65058;HTU21D;51644;51.068;5.860;2024-02-21T01:33:45;10.72;84.92
65058;HTU21D;51644;51.068;5.860;2024-02-21T01:34:44;10.74;84.77
65058;HTU21D;51644;51.068;5.860;2024-02-21T01:35:42;10.75;84.83
65058;HTU21D;51644;51.068;5.860;2024-02-21T01:36:44;10.71;85.00
65058;HTU21D;51644;51.068;5.860;2024-02-21T01:37:42;10.64;85.30
65058;HTU21D;51644;51.068;5.860;2024-02-21T01:38:44;10.67;85.11
65058;HTU21D;51644;51.068;5.860;2024-02-21T01:39:42;10.69;84.98
65058;HTU21D;51644;51.068;5.860;2024-02-21T01:40:41;10.72;85.00
65058;HTU21D;51644;51.068;5.860;2024-02-21T01:41:40;10.71;84.92
65058;HTU21D;51644;51.068;5.860;2024-02-21T01:42:39;10.67;85.16
65058;HTU21D;51644;51.068;5.860;2024-02-21T01:43:39;10.66;85.15
65058;HTU21D;51644;51.068;5.860;2024-02-21T01:44:38;10.55;85.57
65058;HTU21D;51644;51.068;5.860;2024-02-21T01:45:37;10.58;85.45
65058;HTU21D;51644;51.068;5.860;2024-02-21T01:46:36;10.57;85.59
65058;HTU21D;51644;51.068;5.860;2024-02-21T01:47:37;10.53;85.74
65058;HTU21D;51644;51.068;5.860;2024-02-21T01:48:36;10.55;85.62
65058;HTU21D;51644;51.068;5.860;2024-02-21T01:49:34;10.59;85.52
65058;HTU21D;51644;51.068;5.860;2024-02-21T01:50:34;10.51;85.80
65058;HTU21D;51644;51.068;5.860;2024-02-21T01:51:33;10.54;85.63
65058;HTU21D;51644;51.068;5.860;2024-02-21T01:52:33;10.53;85.63
65058;HTU21D;51644;51.068;5.860;2024-02-21T01:53:38;10.55;85.67
65058;HTU21D;51644;51.068;5.860;2024-02-21T01:54:38;10.57;85.45
65058;HTU21D;51644;51.068;5.860;2024-02-21T01:55:37;10.55;85.60
65058;HTU21D;51644;51.068;5.860;2024-02-21T01:56:36;10.58;85.57
65058;HTU21D;51644;51.068;5.860;2024-02-21T01:57:36;10.60;85.41
65058;HTU21D;51644;51.068;5.860;2024-02-21T01:58:42;10.59;85.32
65058;HTU21D;51644;51.068;5.860;2024-02-21T01:59:45;10.63;85.28
65058;HTU21D;51644;51.068;5.860;2024-02-21T02:00:48;10.63;85.34
65058;HTU21D;51644;51.068;5.860;2024-02-21T02:01:54;10.55;85.64
65058;HTU21D;51644;51.068;5.860;2024-02-21T02:02:56;10.53;85.67
65058;HTU21D;51644;51.068;5.860;2024-02-21T02:03:55;10.57;85.48
65058;HTU21D;51644;51.068;5.860;2024-02-21T02:04:55;10.58;85.50
65058;HTU21D;51644;51.068;5.860;2024-02-21T02:05:54;10.62;85.37
65058;HTU21D;51644;51.068;5.860;2024-02-21T02:06:55;10.58;85.55
65058;HTU21D;51644;51.068;5.860;2024-02-21T02:07:54;10.65;85.31
65058;HTU21D;51644;51.068;5.860;2024-02-21T02:08:53;10.66;85.14
65058;HTU21D;51644;51.068;5.860;2024-02-21T02:10:02;10.69;85.06
65058;HTU21D;51644;51.068;5.860;2024-02-21T02:11:02;10.70;85.03
65058;HTU21D;51644;51.068;5.860;2024-02-21T02:12:01;10.73;84.96
65058;HTU21D;51644;51.068;5.860;2024-02-21T02:13:13;10.74;84.88
65058;HTU21D;51644;51.068;5.860;2024-02-21T02:14:12;10.69;84.97
65058;HTU21D;51644;51.068;5.860;2024-02-21T02:15:16;10.71;85.00
65058;HTU21D;51644;51.068;5.860;2024-02-21T02:16:15;10.70;85.06
65058;HTU21D;51644;51.068;5.860;2024-02-21T02:17:14;10.69;85.00
65058;HTU21D;51644;51.068;5.860;2024-02-21T02:18:14;10.62;85.26
65058;HTU21D;51644;51.068;5.860;2024-02-21T02:19:13;10.62;85.28
65058;HTU21D;51644;51.068;5.860;2024-02-21T02:20:14;10.62;85.29
65058;HTU21D;51644;51.068;5.860;2024-02-21T02:21:43;10.62;85.35
65058;HTU21D;51644;51.068;5.860;2024-02-21T02:22:47;10.63;85.29
65058;HTU21D;51644;51.068;5.860;2024-02-21T02:23:47;10.62;85.29
65058;HTU21D;51644;51.068;5.860;2024-02-21T02:24:49;10.58;85.38
65058;HTU21D;51644;51.068;5.860;2024-02-21T02:25:49;10.60;85.27
65058;HTU21D;51644;51.068;5.860;2024-02-21T02:26:50;10.60;85.37
65058;HTU21D;51644;51.068;5.860;2024-02-21T02:27:49;10.65;85.25
65058;HTU21D;51644;51.068;5.860;2024-02-21T02:28:47;10.64;85.32
65058;HTU21D;51644;51.068;5.860;2024-02-21T02:29:46;10.64;85.26
65058;HTU21D;51644;51.068;5.860;2024-02-21T02:30:45;10.63;85.36
65058;HTU21D;51644;51.068;5.860;2024-02-21T02:31:43;10.60;85.32
65058;HTU21D;51644;51.068;5.860;2024-02-21T02:32:46;10.62;85.12
65058;HTU21D;51644;51.068;5.860;2024-02-21T02:33:44;10.58;85.45
65058;HTU21D;51644;51.068;5.860;2024-02-21T02:34:43;10.57;85.54
65058;HTU21D;51644;51.068;5.860;2024-02-21T02:35:42;10.54;85.74
65058;HTU21D;51644;51.068;5.860;2024-02-21T02:36:41;10.53;85.63
65058;HTU21D;51644;51.068;5.860;2024-02-21T02:37:40;10.49;85.58
65058;HTU21D;51644;51.068;5.860;2024-02-21T02:38:41;10.51;85.71
65058;HTU21D;51644;51.068;5.860;2024-02-21T02:39:40;10.52;85.60
65058;HTU21D;51644;51.068;5.860;2024-02-21T02:40:39;10.49;85.56
65058;HTU21D;51644;51.068;5.860;2024-02-21T02:41:47;10.45;85.62
65058;HTU21D;51644;51.068;5.860;2024-02-21T02:42:49;10.53;85.56
65058;HTU21D;51644;51.068;5.860;2024-02-21T02:43:47;10.53;85.52
65058;HTU21D;51644;51.068;5.860;2024-02-21T02:44:46;10.51;85.51
65058;HTU21D;51644;51.068;5.860;2024-02-21T02:45:45;10.54;85.54
65058;HTU21D;51644;51.068;5.860;2024-02-21T02:46:44;10.52;85.55
65058;HTU21D;51644;51.068;5.860;2024-02-21T02:47:44;10.51;85.48
65058;HTU21D;51644;51.068;5.860;2024-02-21T02:48:44;10.57;85.39
65058;HTU21D;51644;51.068;5.860;2024-02-21T02:49:43;10.56;85.36
65058;HTU21D;51644;51.068;5.860;2024-02-21T02:50:43;10.58;85.38
65058;HTU21D;51644;51.068;5.860;2024-02-21T02:51:44;10.58;85.29
65058;HTU21D;51644;51.068;5.860;2024-02-21T02:52:46;10.63;85.19
65058;HTU21D;51644;51.068;5.860;2024-02-21T02:53:45;10.63;85.09
65058;HTU21D;51644;51.068;5.860;2024-02-21T02:54:44;10.57;85.10
65058;HTU21D;51644;51.068;5.860;2024-02-21T02:55:43;10.57;85.29
65058;HTU21D;51644;51.068;5.860;2024-02-21T02:56:42;10.56;85.16
65058;HTU21D;51644;51.068;5.860;2024-02-21T02:57:42;10.58;85.29
65058;HTU21D;51644;51.068;5.860;2024-02-21T02:58:44;10.57;85.26
65058;HTU21D;51644;51.068;5.860;2024-02-21T02:59:50;10.56;85.15
65058;HTU21D;51644;51.068;5.860;2024-02-21T03:00:49;10.58;85.27
65058;HTU21D;51644;51.068;5.860;2024-02-21T03:01:47;10.59;85.09
65058;HTU21D;51644;51.068;5.860;2024-02-21T03:02:48;10.57;85.26
65058;HTU21D;51644;51.068;5.860;2024-02-21T03:03:47;10.57;85.07
65058;HTU21D;51644;51.068;5.860;2024-02-21T03:04:46;10.62;85.00
65058;HTU21D;51644;51.068;5.860;2024-02-21T03:05:48;10.62;85.00
65058;HTU21D;51644;51.068;5.860;2024-02-21T03:06:47;10.62;84.99
65058;HTU21D;51644;51.068;5.860;2024-02-21T03:07:47;10.56;85.03
65058;HTU21D;51644;51.068;5.860;2024-02-21T03:08:46;10.53;85.00
65058;HTU21D;51644;51.068;5.860;2024-02-21T03:09:44;10.52;85.22
65058;HTU21D;51644;51.068;5.860;2024-02-21T03:10:43;10.48;84.82
65058;HTU21D;51644;51.068;5.860;2024-02-21T03:11:42;10.44;85.20
65058;HTU21D;51644;51.068;5.860;2024-02-21T03:12:47;10.42;85.51
65058;HTU21D;51644;51.068;5.860;2024-02-21T03:13:46;10.46;85.32
65058;HTU21D;51644;51.068;5.860;2024-02-21T03:14:45;10.46;85.26
65058;HTU21D;51644;51.068;5.860;2024-02-21T03:15:43;10.44;85.38
65058;HTU21D;51644;51.068;5.860;2024-02-21T03:16:42;10.45;85.45
65058;HTU21D;51644;51.068;5.860;2024-02-21T03:17:41;10.43;85.55
65058;HTU21D;51644;51.068;5.860;2024-02-21T03:18:43;10.41;85.64
65058;HTU21D;51644;51.068;5.860;2024-02-21T03:19:41;10.46;85.47
65058;HTU21D;51644;51.068;5.860;2024-02-21T03:20:43;10.40;85.77
65058;HTU21D;51644;51.068;5.860;2024-02-21T03:21:42;10.38;85.67
65058;HTU21D;51644;51.068;5.860;2024-02-21T03:22:41;10.44;85.53
65058;HTU21D;51644;51.068;5.860;2024-02-21T03:23:40;10.42;85.65
65058;HTU21D;51644;51.068;5.860;2024-02-21T03:24:38;10.38;85.62
65058;HTU21D;51644;51.068;5.860;2024-02-21T03:25:37;10.41;85.55
65058;HTU21D;51644;51.068;5.860;2024-02-21T03:26:39;10.38;85.64
65058;HTU21D;51644;51.068;5.860;2024-02-21T03:27:38;10.40;85.58
65058;HTU21D;51644;51.068;5.860;2024-02-21T03:28:37;10.41;85.55
65058;HTU21D;51644;51.068;5.860;2024-02-21T03:29:38;10.46;85.06
65058;HTU21D;51644;51.068;5.860;2024-02-21T03:30:36;10.42;85.41
65058;HTU21D;51644;51.068;5.860;2024-02-21T03:31:35;10.37;85.35
65058;HTU21D;51644;51.068;5.860;2024-02-21T03:32:34;10.36;85.31
65058;HTU21D;51644;51.068;5.860;2024-02-21T03:33:33;10.38;85.26
65058;HTU21D;51644;51.068;5.860;2024-02-21T03:34:32;10.38;85.53
65058;HTU21D;51644;51.068;5.860;2024-02-21T03:35:31;10.43;85.23
65058;HTU21D;51644;51.068;5.860;2024-02-21T03:36:29;10.41;85.16
65058;HTU21D;51644;51.068;5.860;2024-02-21T03:37:28;10.43;85.19
65058;HTU21D;51644;51.068;5.860;2024-02-21T03:38:27;10.43;85.07
65058;HTU21D;51644;51.068;5.860;2024-02-21T03:39:26;10.50;84.89
65058;HTU21D;51644;51.068;5.860;2024-02-21T03:40:24;10.46;84.88
65058;HTU21D;51644;51.068;5.860;2024-02-21T03:41:23;10.40;84.85
65058;HTU21D;51644;51.068;5.860;2024-02-21T03:42:22;10.44;85.04
65058;HTU21D;51644;51.068;5.860;2024-02-21T03:43:21;10.42;85.00
65058;HTU21D;51644;51.068;5.860;2024-02-21T03:44:20;10.45;84.97
65058;HTU21D;51644;51.068;5.860;2024-02-21T03:45:18;10.46;84.94
65058;HTU21D;51644;51.068;5.860;2024-02-21T03:46:18;10.40;84.89
65058;HTU21D;51644;51.068;5.860;2024-02-21T03:47:20;10.39;85.12
65058;HTU21D;51644;51.068;5.860;2024-02-21T03:48:18;10.38;85.22
65058;HTU21D;51644;51.068;5.860;2024-02-21T03:49:20;10.38;85.00
65058;HTU21D;51644;51.068;5.860;2024-02-21T03:50:18;10.37;85.19
65058;HTU21D;51644;51.068;5.860;2024-02-21T03:51:17;10.38;85.09
65058;HTU21D;51644;51.068;5.860;2024-02-21T03:52:16;10.33;85.17
65058;HTU21D;51644;51.068;5.860;2024-02-21T03:53:15;10.33;85.39
65058;HTU21D;51644;51.068;5.860;2024-02-21T03:54:14;10.34;85.28
65058;HTU21D;51644;51.068;5.860;2024-02-21T03:55:12;10.31;85.45
65058;HTU21D;51644;51.068;5.860;2024-02-21T03:56:14;10.29;85.51
65058;HTU21D;51644;51.068;5.860;2024-02-21T03:57:13;10.33;85.35
65058;HTU21D;51644;51.068;5.860;2024-02-21T03:58:12;10.25;85.67
65058;HTU21D;51644;51.068;5.860;2024-02-21T03:59:11;10.20;85.96
65058;HTU21D;51644;51.068;5.860;2024-02-21T04:00:10;10.21;85.83
65058;HTU21D;51644;51.068;5.860;2024-02-21T04:01:09;10.25;85.67
65058;HTU21D;51644;51.068;5.860;2024-02-21T04:02:08;10.28;85.61
65058;HTU21D;51644;51.068;5.860;2024-02-21T04:03:07;10.28;85.66
65058;HTU21D;51644;51.068;5.860;2024-02-21T04:04:06;10.24;85.90
65058;HTU21D;51644;51.068;5.860;2024-02-21T04:05:05;10.23;85.80
65058;HTU21D;51644;51.068;5.860;2024-02-21T04:06:07;10.26;85.77
65058;HTU21D;51644;51.068;5.860;2024-02-21T04:07:06;10.25;85.73
65058;HTU21D;51644;51.068;5.860;2024-02-21T04:08:06;10.25;85.77
65058;HTU21D;51644;51.068;5.860;2024-02-21T04:09:05;10.26;85.72
65058;HTU21D;51644;51.068;5.860;2024-02-21T04:10:04;10.25;85.72
65058;HTU21D;51644;51.068;5.860;2024-02-21T04:11:03;10.25;85.80
65058;HTU21D;51644;51.068;5.860;2024-02-21T04:12:01;10.22;85.86
65058;HTU21D;51644;51.068;5.860;2024-02-21T04:13:00;10.18;86.16
65058;HTU21D;51644;51.068;5.860;2024-02-21T04:13:59;10.14;86.12
65058;HTU21D;51644;51.068;5.860;2024-02-21T04:14:58;10.09;86.32
65058;HTU21D;51644;51.068;5.860;2024-02-21T04:15:56;10.10;86.43
65058;HTU21D;51644;51.068;5.860;2024-02-21T04:16:55;10.10;86.19
65058;HTU21D;51644;51.068;5.860;2024-02-21T04:17:56;10.04;86.61
65058;HTU21D;51644;51.068;5.860;2024-02-21T04:18:55;10.06;86.38
65058;HTU21D;51644;51.068;5.860;2024-02-21T04:20:03;10.05;86.35
65058;HTU21D;51644;51.068;5.860;2024-02-21T04:21:07;10.03;86.68
65058;HTU21D;51644;51.068;5.860;2024-02-21T04:22:05;9.95;86.79
65058;HTU21D;51644;51.068;5.860;2024-02-21T04:23:12;10.01;86.51
65058;HTU21D;51644;51.068;5.860;2024-02-21T04:24:11;10.01;86.58
65058;HTU21D;51644;51.068;5.860;2024-02-21T04:25:12;9.99;86.63
65058;HTU21D;51644;51.068;5.860;2024-02-21T04:26:11;9.95;86.90
65058;HTU21D;51644;51.068;5.860;2024-02-21T04:27:12;9.96;86.83
65058;HTU21D;51644;51.068;5.860;2024-02-21T04:28:11;9.98;86.60
65058;HTU21D;51644;51.068;5.860;2024-02-21T04:29:10;9.99;86.69
65058;HTU21D;51644;51.068;5.860;2024-02-21T04:30:10;10.03;86.26
65058;HTU21D;51644;51.068;5.860;2024-02-21T04:31:08;9.93;86.79
65058;HTU21D;51644;51.068;5.860;2024-02-21T04:32:07;9.96;86.77
65058;HTU21D;51644;51.068;5.860;2024-02-21T04:33:07;9.97;86.58
65058;HTU21D;51644;51.068;5.860;2024-02-21T04:34:06;10.01;86.58
65058;HTU21D;51644;51.068;5.860;2024-02-21T04:35:05;10.05;86.35
65058;HTU21D;51644;51.068;5.860;2024-02-21T04:36:04;9.99;86.58
65058;HTU21D;51644;51.068;5.860;2024-02-21T04:37:03;9.98;86.58
65058;HTU21D;51644;51.068;5.860;2024-02-21T04:38:02;10.01;86.48
65058;HTU21D;51644;51.068;5.860;2024-02-21T04:39:02;10.04;86.31
65058;HTU21D;51644;51.068;5.860;2024-02-21T04:40:01;10.08;86.19
65058;HTU21D;51644;51.068;5.860;2024-02-21T04:41:00;10.01;86.38
65058;HTU21D;51644;51.068;5.860;2024-02-21T04:41:59;9.98;86.48
65058;HTU21D;51644;51.068;5.860;2024-02-21T04:42:58;10.01;86.41
65058;HTU21D;51644;51.068;5.860;2024-02-21T04:43:57;10.04;86.22
65058;HTU21D;51644;51.068;5.860;2024-02-21T04:44:58;9.99;86.31
65058;HTU21D;51644;51.068;5.860;2024-02-21T04:46:00;9.97;86.50
65058;HTU21D;51644;51.068;5.860;2024-02-21T04:46:59;9.97;86.48
65058;HTU21D;51644;51.068;5.860;2024-02-21T04:47:58;9.96;86.51
65058;HTU21D;51644;51.068;5.860;2024-02-21T04:48:57;9.98;86.29
65058;HTU21D;51644;51.068;5.860;2024-02-21T04:49:55;9.91;86.50
65058;HTU21D;51644;51.068;5.860;2024-02-21T04:50:54;9.94;86.47
65058;HTU21D;51644;51.068;5.860;2024-02-21T04:51:53;9.95;86.47
65058;HTU21D;51644;51.068;5.860;2024-02-21T04:52:52;9.92;86.44
65058;HTU21D;51644;51.068;5.860;2024-02-21T04:54:01;9.90;86.51
65058;HTU21D;51644;51.068;5.860;2024-02-21T04:55:02;9.81;87.12
65058;HTU21D;51644;51.068;5.860;2024-02-21T04:56:01;9.78;87.19
65058;HTU21D;51644;51.068;5.860;2024-02-21T04:56:59;9.75;87.27
65058;HTU21D;51644;51.068;5.860;2024-02-21T04:57:58;9.72;87.45
65058;HTU21D;51644;51.068;5.860;2024-02-21T04:58:57;9.64;87.89
65058;HTU21D;51644;51.068;5.860;2024-02-21T04:59:56;9.68;87.87
65058;HTU21D;51644;51.068;5.860;2024-02-21T05:00:54;9.67;87.86
65058;HTU21D;51644;51.068;5.860;2024-02-21T05:01:53;9.68;87.92
65058;HTU21D;51644;51.068;5.860;2024-02-21T05:02:52;9.70;87.70
65058;HTU21D;51644;51.068;5.860;2024-02-21T05:03:51;9.66;88.06
65058;HTU21D;51644;51.068;5.860;2024-02-21T05:04:50;9.69;87.84
65058;HTU21D;51644;51.068;5.860;2024-02-21T05:05:49;9.74;87.73
65058;HTU21D;51644;51.068;5.860;2024-02-21T05:06:50;9.67;88.04
65058;HTU21D;51644;51.068;5.860;2024-02-21T05:07:51;9.72;87.82
65058;HTU21D;51644;51.068;5.860;2024-02-21T05:08:49;9.78;87.58
65058;HTU21D;51644;51.068;5.860;2024-02-21T05:09:48;9.78;87.63
65058;HTU21D;51644;51.068;5.860;2024-02-21T05:10:47;9.80;87.48
65058;HTU21D;51644;51.068;5.860;2024-02-21T05:11:46;9.79;87.56
65058;HTU21D;51644;51.068;5.860;2024-02-21T05:12:44;9.90;86.99
65058;HTU21D;51644;51.068;5.860;2024-02-21T05:13:43;9.95;86.71
65058;HTU21D;51644;51.068;5.860;2024-02-21T05:14:42;9.95;86.62
65058;HTU21D;51644;51.068;5.860;2024-02-21T05:15:40;9.95;86.70
65058;HTU21D;51644;51.068;5.860;2024-02-21T05:16:39;9.94;86.74
65058;HTU21D;51644;51.068;5.860;2024-02-21T05:17:38;9.98;86.53
65058;HTU21D;51644;51.068;5.860;2024-02-21T05:18:37;9.98;86.44
65058;HTU21D;51644;51.068;5.860;2024-02-21T05:19:36;9.96;86.56
65058;HTU21D;51644;51.068;5.860;2024-02-21T05:20:34;9.96;86.67
65058;HTU21D;51644;51.068;5.860;2024-02-21T05:21:35;10.01;86.44
65058;HTU21D;51644;51.068;5.860;2024-02-21T05:22:34;10.07;86.25
65058;HTU21D;51644;51.068;5.860;2024-02-21T05:23:33;9.98;86.48
65058;HTU21D;51644;51.068;5.860;2024-02-21T05:24:32;10.00;86.49
65058;HTU21D;51644;51.068;5.860;2024-02-21T05:25:31;9.98;86.43
65058;HTU21D;51644;51.068;5.860;2024-02-21T05:26:29;9.94;86.60
65058;HTU21D;51644;51.068;5.860;2024-02-21T05:27:28;9.88;86.86
65058;HTU21D;51644;51.068;5.860;2024-02-21T05:28:27;9.98;86.59
65058;HTU21D;51644;51.068;5.860;2024-02-21T05:29:26;9.95;86.80
65058;HTU21D;51644;51.068;5.860;2024-02-21T05:30:24;9.99;86.53
65058;HTU21D;51644;51.068;5.860;2024-02-21T05:31:23;10.00;86.43
65058;HTU21D;51644;51.068;5.860;2024-02-21T05:32:21;10.03;86.31
65058;HTU21D;51644;51.068;5.860;2024-02-21T05:33:20;10.04;86.32
65058;HTU21D;51644;51.068;5.860;2024-02-21T05:34:24;10.04;86.32
65058;HTU21D;51644;51.068;5.860;2024-02-21T05:35:27;9.95;86.44
65058;HTU21D;51644;51.068;5.860;2024-02-21T05:36:26;9.96;86.58
65058;HTU21D;51644;51.068;5.860;2024-02-21T05:37:26;10.00;86.48
65058;HTU21D;51644;51.068;5.860;2024-02-21T05:38:25;10.03;86.45
65058;HTU21D;51644;51.068;5.860;2024-02-21T05:39:24;10.07;86.19
65058;HTU21D;51644;51.068;5.860;2024-02-21T05:40:25;10.07;86.17
65058;HTU21D;51644;51.068;5.860;2024-02-21T05:41:24;10.09;86.13
65058;HTU21D;51644;51.068;5.860;2024-02-21T05:42:22;10.12;85.93
65058;HTU21D;51644;51.068;5.860;2024-02-21T05:43:21;10.11;85.97
65058;HTU21D;51644;51.068;5.860;2024-02-21T05:44:19;10.09;86.06
65058;HTU21D;51644;51.068;5.860;2024-02-21T05:45:20;10.13;85.84
65058;HTU21D;51644;51.068;5.860;2024-02-21T05:46:19;10.09;85.89
65058;HTU21D;51644;51.068;5.860;2024-02-21T05:47:18;10.11;85.90
65058;HTU21D;51644;51.068;5.860;2024-02-21T05:48:20;10.09;85.84
65058;HTU21D;51644;51.068;5.860;2024-02-21T05:49:18;10.12;85.63
65058;HTU21D;51644;51.068;5.860;2024-02-21T05:50:17;10.12;85.66
65058;HTU21D;51644;51.068;5.860;2024-02-21T05:51:16;10.10;85.88
65058;HTU21D;51644;51.068;5.860;2024-02-21T05:52:14;10.13;85.66
65058;HTU21D;51644;51.068;5.860;2024-02-21T05:53:13;10.09;85.59
65058;HTU21D;51644;51.068;5.860;2024-02-21T05:54:11;10.07;85.93
65058;HTU21D;51644;51.068;5.860;2024-02-21T05:55:10;10.09;85.90
65058;HTU21D;51644;51.068;5.860;2024-02-21T05:56:13;10.14;85.71
65058;HTU21D;51644;51.068;5.860;2024-02-21T05:57:12;10.16;85.59
65058;HTU21D;51644;51.068;5.860;2024-02-21T05:58:11;10.13;85.77
65058;HTU21D;51644;51.068;5.860;2024-02-21T05:59:11;10.20;85.51
65058;HTU21D;51644;51.068;5.860;2024-02-21T06:00:10;10.10;85.76
65058;HTU21D;51644;51.068;5.860;2024-02-21T06:01:12;10.15;85.55
65058;HTU21D;51644;51.068;5.860;2024-02-21T06:02:11;10.13;85.68
65058;HTU21D;51644;51.068;5.860;2024-02-21T06:03:09;10.07;85.64
65058;HTU21D;51644;51.068;5.860;2024-02-21T06:04:08;10.07;85.64
65058;HTU21D;51644;51.068;5.860;2024-02-21T06:05:07;10.06;85.71
65058;HTU21D;51644;51.068;5.860;2024-02-21T06:06:06;10.06;85.60
65058;HTU21D;51644;51.068;5.860;2024-02-21T06:07:04;10.09;85.74
65058;HTU21D;51644;51.068;5.860;2024-02-21T06:08:03;10.05;85.82
65058;HTU21D;51644;51.068;5.860;2024-02-21T06:09:02;10.07;85.81
65058;HTU21D;51644;51.068;5.860;2024-02-21T06:10:03;10.13;85.72
65058;HTU21D;51644;51.068;5.860;2024-02-21T06:11:01;10.13;85.64
65058;HTU21D;51644;51.068;5.860;2024-02-21T06:12:00;10.13;85.61
65058;HTU21D;51644;51.068;5.860;2024-02-21T06:12:58;10.11;85.50